Time;durP1;ratioP1;P1;durP2;ratioP2;P2;SDS_P1;SDS_P2;PMS_P1;PMS_P2;Temp;Humidity;BMP_temperature;BMP_pressure;BME280_temperature;BME280_humidity;BME280_pressure;Samples;Min_cycle;Max_cycle;Signal;HPM_P1;HPM_P2
2023/11/29 00:02:17;;;;;;;6.80;6.20;;;2.90;99.90;;;;;;4955197;28;20231;-78
2023/11/29 00:04:45;;;;;;;6.80;6.20;;;2.90;99.90;;;;;;4962543;28;20227;-80
2023/11/29 00:07:12;;;;;;;6.85;5.80;;;2.90;99.90;;;;;;4974517;28;20242;-81
2023/11/29 00:09:39;;;;;;;6.93;5.10;;;2.90;99.90;;;;;;4975025;28;20310;-81
2023/11/29 00:12:08;;;;;;;6.32;5.72;;;2.90;99.90;;;;;;4967994;28;20625;-80
2023/11/29 00:14:35;;;;;;;7.20;6.55;;;2.90;99.90;;;;;;4975135;28;20229;-80
2023/11/29 00:17:04;;;;;;;7.15;6.43;;;2.90;99.90;;;;;;4975069;28;20238;-80
2023/11/29 00:19:31;;;;;;;6.40;5.78;;;2.90;99.90;;;;;;4974604;28;20219;-80
2023/11/29 00:21:58;;;;;;;6.25;5.38;;;2.90;99.90;;;;;;4974362;28;20235;-81
2023/11/29 00:24:25;;;;;;;7.05;6.22;;;2.90;99.90;;;;;;4974165;28;20231;-80
2023/11/29 00:26:52;;;;;;;6.75;5.80;;;2.80;99.90;;;;;;4975024;28;20223;-81
2023/11/29 00:29:21;;;;;;;6.22;5.35;;;2.80;99.90;;;;;;4973152;28;20223;-78
2023/11/29 00:31:48;;;;;;;8.10;6.45;;;2.70;99.90;;;;;;4969279;28;20252;-77
2023/11/29 00:34:14;;;;;;;7.20;6.50;;;2.70;99.90;;;;;;4954911;28;20227;-78
2023/11/29 00:36:41;;;;;;;7.78;7.03;;;2.60;99.90;;;;;;4955370;28;20239;-81
2023/11/29 00:39:09;;;;;;;8.40;6.53;;;2.70;99.90;;;;;;4954736;28;20231;-79
2023/11/29 00:41:38;;;;;;;7.60;6.35;;;2.70;99.90;;;;;;4955546;28;20236;-78
2023/11/29 00:44:09;;;;;;;7.30;6.60;;;2.60;99.90;;;;;;4955455;28;20243;-78
2023/11/29 00:46:37;;;;;;;8.52;7.13;;;2.60;99.90;;;;;;4954609;28;20299;-77
2023/11/29 00:49:05;;;;;;;7.45;6.63;;;2.50;99.90;;;;;;4955304;28;20243;-77
2023/11/29 00:51:31;;;;;;;9.25;7.85;;;2.40;99.90;;;;;;4954691;28;20270;-77
2023/11/29 00:53:58;;;;;;;7.20;6.50;;;2.40;99.90;;;;;;4955716;28;20231;-77
2023/11/29 00:56:25;;;;;;;9.25;6.75;;;2.30;99.90;;;;;;4954853;28;20571;-77
2023/11/29 00:58:52;;;;;;;7.90;7.10;;;2.30;99.90;;;;;;4955339;28;20615;-78
2023/11/29 01:01:19;;;;;;;7.70;6.40;;;2.40;99.90;;;;;;4965047;28;20227;-78
2023/11/29 01:03:48;;;;;;;8.43;7.25;;;2.20;99.90;;;;;;4974536;28;20227;-80
2023/11/29 01:06:19;;;;;;;9.35;6.85;;;2.30;99.90;;;;;;4974171;28;20242;-80
2023/11/29 01:08:46;;;;;;;7.32;6.53;;;2.20;99.90;;;;;;4976697;28;20223;-80
2023/11/29 01:11:13;;;;;;;9.30;7.85;;;2.30;99.90;;;;;;4974370;28;20227;-81
2023/11/29 01:13:40;;;;;;;8.18;7.38;;;2.20;99.90;;;;;;4973978;28;20243;-81
2023/11/29 01:16:07;;;;;;;11.48;8.85;;;2.20;99.90;;;;;;4974575;28;20539;-78
2023/11/29 01:18:37;;;;;;;10.40;8.13;;;2.10;99.90;;;;;;4973811;28;20282;-80
2023/11/29 01:21:06;;;;;;;13.63;9.88;;;2.00;99.90;;;;;;4974305;28;20238;-78
2023/11/29 01:23:33;;;;;;;10.70;8.55;;;1.90;99.90;;;;;;4973995;28;20619;-77
2023/11/29 01:26:00;;;;;;;9.02;8.13;;;1.90;99.90;;;;;;4974338;28;20285;-78
2023/11/29 01:28:27;;;;;;;11.07;9.23;;;1.70;99.90;;;;;;4973863;28;20255;-78
2023/11/29 01:30:54;;;;;;;10.00;8.27;;;1.80;99.90;;;;;;4974084;28;20314;-78
2023/11/29 01:33:22;;;;;;;12.35;8.18;;;1.80;99.90;;;;;;4973676;28;20609;-81
2023/11/29 01:35:49;;;;;;;11.32;8.40;;;1.80;99.90;;;;;;4974178;28;20319;-81
2023/11/29 01:38:17;;;;;;;9.88;8.35;;;1.80;99.90;;;;;;4974057;28;20231;-79
2023/11/29 01:40:44;;;;;;;8.68;7.60;;;1.70;99.90;;;;;;4975241;28;20227;-78
2023/11/29 01:43:11;;;;;;;8.98;8.18;;;1.70;99.90;;;;;;4976607;28;20314;-81
2023/11/29 01:45:38;;;;;;;10.13;8.65;;;1.70;99.90;;;;;;4976700;28;20223;-81
2023/11/29 01:48:06;;;;;;;10.85;8.50;;;1.70;99.90;;;;;;4976722;28;20230;-77
2023/11/29 01:50:40;;;;;;;11.05;9.10;;;1.70;99.90;;;;;;4974604;28;20697;-80
2023/11/29 01:53:07;;;;;;;9.75;8.48;;;1.70;99.90;;;;;;4976511;28;20637;-77
2023/11/29 01:55:40;;;;;;;9.43;8.43;;;1.80;99.90;;;;;;4976286;28;20231;-76
2023/11/29 01:58:07;;;;;;;10.75;8.27;;;1.70;99.90;;;;;;4976650;28;20227;-77
2023/11/29 02:00:34;;;;;;;10.82;8.30;;;1.80;99.90;;;;;;4976656;28;20220;-80
2023/11/29 02:03:02;;;;;;;8.77;7.65;;;1.80;99.90;;;;;;4977606;28;20294;-82
2023/11/29 02:05:29;;;;;;;8.30;7.38;;;1.80;99.90;;;;;;4976869;28;20587;-80
2023/11/29 02:07:57;;;;;;;8.77;7.30;;;1.80;99.90;;;;;;4977638;28;20239;-81
2023/11/29 02:10:25;;;;;;;10.45;6.97;;;1.70;99.90;;;;;;4972183;28;20234;-81
2023/11/29 02:12:53;;;;;;;8.10;7.30;;;1.70;99.90;;;;;;4974089;28;20686;-81
2023/11/29 02:15:20;;;;;;;9.80;8.35;;;1.70;99.90;;;;;;4976198;28;20226;-81
2023/11/29 02:17:50;;;;;;;10.55;8.82;;;1.70;99.90;;;;;;4975100;28;20251;-80
2023/11/29 02:20:19;;;;;;;9.95;7.90;;;1.70;99.90;;;;;;4976836;28;20662;-80
2023/11/29 02:22:54;;;;;;;9.98;8.10;;;1.70;99.90;;;;;;4975328;28;20227;-77
2023/11/29 02:25:22;;;;;;;10.85;8.02;;;1.70;99.90;;;;;;4976113;28;20238;-81
2023/11/29 02:27:49;;;;;;;8.88;6.80;;;1.70;99.90;;;;;;4976247;28;20223;-81
2023/11/29 02:30:17;;;;;;;8.68;7.57;;;1.60;99.90;;;;;;4976373;28;20250;-79
2023/11/29 02:32:44;;;;;;;9.02;8.07;;;1.60;99.90;;;;;;4962887;28;20236;-80
2023/11/29 02:35:21;;;;;;;11.57;8.23;;;1.60;99.90;;;;;;4957152;28;20547;-80
2023/11/29 02:37:48;;;;;;;8.27;7.40;;;1.60;99.90;;;;;;4956167;28;20243;-78
2023/11/29 02:40:15;;;;;;;8.07;7.13;;;1.50;99.90;;;;;;4957716;28;20566;-80
2023/11/29 02:42:44;;;;;;;8.95;8.02;;;1.40;99.90;;;;;;4956592;28;20240;-80
2023/11/29 02:45:12;;;;;;;9.85;8.05;;;1.40;99.90;;;;;;4970254;28;20245;-81
2023/11/29 02:47:39;;;;;;;10.48;9.18;;;1.40;99.90;;;;;;4975976;28;20224;-81
2023/11/29 02:50:07;;;;;;;10.50;9.10;;;1.40;99.90;;;;;;4976440;28;20605;-80
2023/11/29 02:52:34;;;;;;;9.68;8.65;;;1.40;99.90;;;;;;4974891;28;20232;-80
2023/11/29 02:55:01;;;;;;;10.48;7.38;;;1.40;99.90;;;;;;4976394;28;20231;-80
2023/11/29 02:57:30;;;;;;;10.43;8.20;;;1.30;99.90;;;;;;4976122;28;20231;-80
2023/11/29 03:00:17;;;;;;;9.20;8.30;;;1.30;99.90;;;;;;4975742;28;20255;-77
2023/11/29 03:02:44;;;;;;;11.10;8.88;;;1.30;99.90;;;;;;4975482;28;20307;-80
2023/11/29 03:05:11;;;;;;;9.05;7.85;;;1.30;99.90;;;;;;4954973;28;20278;-80
2023/11/29 03:07:39;;;;;;;11.65;8.90;;;1.20;99.90;;;;;;4956357;28;20224;-78
2023/11/29 03:10:06;;;;;;;12.02;8.32;;;1.20;99.90;;;;;;4958458;28;20232;-78
2023/11/29 03:12:34;;;;;;;8.85;7.65;;;1.30;99.90;;;;;;4975966;28;20243;-78
2023/11/29 03:15:02;;;;;;;8.90;8.00;;;1.20;99.90;;;;;;4975342;28;20566;-78
2023/11/29 03:17:29;;;;;;;7.88;7.07;;;1.20;99.90;;;;;;4976138;28;20286;-78
2023/11/29 03:19:56;;;;;;;8.00;7.22;;;1.20;99.90;;;;;;4975486;28;20293;-78
2023/11/29 03:22:23;;;;;;;8.25;7.15;;;1.20;99.90;;;;;;4975697;28;20602;-77
2023/11/29 03:24:53;;;;;;;7.13;6.40;;;1.20;99.90;;;;;;4976074;28;20262;-77
2023/11/29 03:27:21;;;;;;;7.03;6.32;;;1.20;99.90;;;;;;4977234;28;20306;-79
2023/11/29 03:29:48;;;;;;;9.13;6.45;;;1.20;99.90;;;;;;4975440;28;20242;-77
2023/11/29 03:32:17;;;;;;;8.90;6.35;;;1.20;99.90;;;;;;4974713;28;20227;-77
2023/11/29 03:34:44;;;;;;;9.20;7.68;;;1.20;99.90;;;;;;4975194;28;20231;-78
2023/11/29 03:37:11;;;;;;;6.30;5.70;;;1.20;99.90;;;;;;4976429;28;20224;-77
2023/11/29 03:39:38;;;;;;;7.53;6.40;;;1.20;99.90;;;;;;4976020;28;20251;-79
2023/11/29 03:42:05;;;;;;;9.50;6.20;;;1.20;99.90;;;;;;4975967;28;20227;-77
2023/11/29 03:44:33;;;;;;;6.22;5.63;;;1.10;99.90;;;;;;4976334;28;20223;-79
2023/11/29 03:47:00;;;;;;;7.13;6.43;;;1.10;99.90;;;;;;4975735;28;20568;-78
2023/11/29 03:49:28;;;;;;;7.75;5.88;;;1.00;99.90;;;;;;4975905;28;20231;-78
2023/11/29 03:51:55;;;;;;;7.20;6.50;;;1.00;99.90;;;;;;4975407;28;20231;-81
2023/11/29 03:54:22;;;;;;;6.88;6.22;;;1.00;99.90;;;;;;4977113;28;20227;-81
2023/11/29 03:56:49;;;;;;;7.65;6.90;;;1.00;99.90;;;;;;4964885;28;20239;-81
2023/11/29 03:59:17;;;;;;;7.78;6.97;;;1.00;99.90;;;;;;4975695;28;20254;-80
2023/11/29 04:01:44;;;;;;;7.10;6.50;;;1.00;99.90;;;;;;4975728;28;20250;-80
2023/11/29 04:04:11;;;;;;;7.55;6.53;;;1.00;99.90;;;;;;4976801;28;20228;-79
2023/11/29 04:06:39;;;;;;;9.18;6.88;;;1.00;99.90;;;;;;4974944;28;20234;-77
2023/11/29 04:09:06;;;;;;;6.55;5.95;;;1.00;99.90;;;;;;4975531;28;20310;-77
2023/11/29 04:11:34;;;;;;;7.65;6.70;;;1.00;99.90;;;;;;4975564;28;20220;-81
2023/11/29 04:14:01;;;;;;;8.52;6.60;;;1.00;99.90;;;;;;4974312;28;20227;-80
2023/11/29 04:16:29;;;;;;;7.75;6.97;;;1.00;99.90;;;;;;4974853;28;20219;-80
2023/11/29 04:18:56;;;;;;;7.88;7.07;;;1.10;99.90;;;;;;4973766;28;20232;-78
2023/11/29 04:21:25;;;;;;;6.65;5.75;;;1.00;99.90;;;;;;4974380;28;20310;-80
2023/11/29 04:23:54;;;;;;;8.40;7.63;;;1.00;99.90;;;;;;4974206;28;20313;-80
2023/11/29 04:26:25;;;;;;;6.50;5.88;;;1.00;99.90;;;;;;4974333;28;20268;-80
2023/11/29 04:28:52;;;;;;;8.07;7.00;;;1.00;99.90;;;;;;4971958;28;20231;-80
2023/11/29 04:31:19;;;;;;;7.25;6.55;;;0.90;99.90;;;;;;4957179;28;20228;-80
2023/11/29 04:33:46;;;;;;;9.85;8.55;;;1.00;99.90;;;;;;4955771;28;20228;-80
2023/11/29 04:36:19;;;;;;;6.82;6.18;;;1.00;99.90;;;;;;4954828;28;20227;-79
2023/11/29 04:38:48;;;;;;;6.00;5.40;;;1.00;99.90;;;;;;4955171;28;20311;-79
2023/11/29 04:41:16;;;;;;;8.73;6.90;;;1.10;99.90;;;;;;4953917;28;20274;-80
2023/11/29 04:43:44;;;;;;;7.38;6.30;;;1.10;99.90;;;;;;4954678;28;20227;-79
2023/11/29 04:46:11;;;;;;;7.60;6.70;;;1.10;99.90;;;;;;4953761;28;20232;-79
2023/11/29 04:48:39;;;;;;;12.38;6.90;;;1.10;99.90;;;;;;4954420;28;20230;-80
2023/11/29 04:51:06;;;;;;;7.97;5.65;;;1.10;99.90;;;;;;4954319;28;20300;-80
2023/11/29 04:53:33;;;;;;;7.65;6.82;;;1.20;99.90;;;;;;4954828;28;20239;-80
2023/11/29 04:56:00;;;;;;;6.95;6.35;;;1.20;99.90;;;;;;4954128;28;20224;-80
2023/11/29 04:58:29;;;;;;;6.68;6.03;;;1.20;99.90;;;;;;4955104;28;20554;-80
2023/11/29 05:00:56;;;;;;;6.88;6.25;;;1.30;99.90;;;;;;4954448;28;20235;-79
2023/11/29 05:03:23;;;;;;;6.60;5.90;;;1.30;99.90;;;;;;4954784;28;20240;-80
2023/11/29 05:05:50;;;;;;;6.20;5.60;;;1.30;99.90;;;;;;4954362;28;20228;-79
2023/11/29 05:08:17;;;;;;;7.57;6.88;;;1.40;99.90;;;;;;4954074;28;20291;-79
2023/11/29 05:10:44;;;;;;;12.25;6.75;;;1.30;99.90;;;;;;4954208;28;20694;-79
2023/11/29 05:13:11;;;;;;;7.00;5.93;;;1.30;99.90;;;;;;4910425;28;1280265;-80
2023/11/29 05:15:47;;;;;;;9.60;6.32;;;1.30;99.90;;;;;;4956899;28;20482;-80
2023/11/29 05:18:15;;;;;;;7.55;6.82;;;1.40;99.90;;;;;;4957631;28;20246;-80
2023/11/29 05:20:41;;;;;;;8.10;6.43;;;1.40;99.90;;;;;;4958967;28;20244;-80
2023/11/29 05:23:09;;;;;;;9.25;6.85;;;1.40;99.90;;;;;;4958455;28;20243;-80
2023/11/29 05:25:35;;;;;;;6.40;5.80;;;1.40;99.90;;;;;;4958761;28;20235;-78
2023/11/29 05:28:03;;;;;;;6.25;5.65;;;1.40;99.90;;;;;;4958143;28;20235;-77
2023/11/29 05:30:30;;;;;;;7.00;6.30;;;1.40;99.90;;;;;;4958656;28;20228;-79
2023/11/29 05:32:58;;;;;;;7.22;6.50;;;1.40;99.90;;;;;;4957519;28;20239;-80
2023/11/29 05:35:26;;;;;;;6.93;6.15;;;1.50;99.90;;;;;;4957651;28;20227;-78
2023/11/29 05:37:53;;;;;;;6.65;6.00;;;1.50;99.90;;;;;;4958304;28;20250;-80
2023/11/29 05:40:20;;;;;;;6.47;5.95;;;1.50;99.90;;;;;;4957996;28;20224;-80
2023/11/29 05:42:47;;;;;;;7.35;6.68;;;1.50;99.90;;;;;;4948188;28;20229;-80
2023/11/29 05:45:15;;;;;;;9.73;6.70;;;1.50;99.90;;;;;;4956948;28;20240;-77
2023/11/29 05:47:42;;;;;;;7.20;5.95;;;1.60;99.90;;;;;;4958340;28;20694;-78
2023/11/29 05:50:10;;;;;;;7.45;6.72;;;1.50;99.90;;;;;;4958456;28;20295;-80
2023/11/29 05:52:39;;;;;;;7.68;6.15;;;1.50;99.90;;;;;;4958327;28;20228;-80
2023/11/29 05:55:07;;;;;;;8.10;7.30;;;1.60;99.90;;;;;;4958068;28;20238;-80
2023/11/29 05:57:34;;;;;;;7.95;6.90;;;1.50;99.90;;;;;;4957995;28;20224;-80
2023/11/29 06:00:08;;;;;;;6.88;6.22;;;1.50;99.90;;;;;;4958328;28;20224;-79
2023/11/29 06:02:35;;;;;;;8.55;7.75;;;1.50;99.90;;;;;;4956223;28;20236;-79
2023/11/29 06:05:04;;;;;;;11.95;7.50;;;1.50;99.90;;;;;;4958454;28;20713;-80
2023/11/29 06:07:34;;;;;;;9.95;8.95;;;1.50;99.90;;;;;;4959950;28;20231;-80
2023/11/29 06:10:03;;;;;;;12.50;9.95;;;1.60;99.90;;;;;;4958595;28;20361;-80
2023/11/29 06:12:30;;;;;;;10.15;9.15;;;1.50;99.90;;;;;;4957718;28;20631;-79
2023/11/29 06:14:57;;;;;;;8.65;7.22;;;1.50;99.90;;;;;;4957075;28;20232;-77
2023/11/29 06:17:24;;;;;;;7.75;6.97;;;1.50;99.90;;;;;;4957689;28;20228;-77
2023/11/29 06:19:54;;;;;;;7.45;6.38;;;1.50;99.90;;;;;;4957656;28;20267;-77
2023/11/29 06:22:21;;;;;;;7.65;6.95;;;1.50;99.90;;;;;;4956346;28;20224;-77
2023/11/29 06:24:51;;;;;;;9.35;7.80;;;1.50;99.90;;;;;;4957429;28;20252;-77
2023/11/29 06:27:18;;;;;;;19.50;12.88;;;1.60;99.90;;;;;;4956974;28;20216;-77
2023/11/29 06:29:45;;;;;;;9.02;8.23;;;1.60;99.90;;;;;;4957500;28;20674;-77
2023/11/29 06:32:12;;;;;;;7.05;6.45;;;1.60;99.90;;;;;;4956606;28;20323;-77
2023/11/29 06:34:39;;;;;;;6.50;5.90;;;1.60;99.90;;;;;;4957536;28;20243;-77
2023/11/29 06:37:07;;;;;;;15.80;12.02;;;1.70;99.90;;;;;;4956339;28;20228;-78
2023/11/29 06:39:34;;;;;;;11.95;10.40;;;1.70;99.90;;;;;;4957125;28;20662;-78
2023/11/29 06:42:03;;;;;;;7.97;7.00;;;1.70;99.90;;;;;;4956381;28;20746;-78
2023/11/29 06:44:30;;;;;;;7.45;6.75;;;1.70;99.90;;;;;;4957188;28;20249;-79
2023/11/29 06:47:04;;;;;;;15.27;6.93;;;1.70;99.90;;;;;;4957503;28;20682;-78
2023/11/29 06:49:31;;;;;;;8.88;7.90;;;1.60;99.90;;;;;;4956984;28;20231;-80
2023/11/29 06:51:58;;;;;;;9.50;8.25;;;1.60;99.90;;;;;;4957450;28;20243;-77
2023/11/29 06:54:25;;;;;;;8.73;7.78;;;1.70;99.90;;;;;;4956422;28;20239;-77
2023/11/29 06:56:52;;;;;;;9.65;7.68;;;1.70;99.90;;;;;;4957180;28;20231;-77
2023/11/29 06:59:20;;;;;;;9.23;8.32;;;1.70;99.90;;;;;;4956611;28;20568;-77
2023/11/29 07:01:47;;;;;;;7.82;6.82;;;1.70;99.90;;;;;;4956724;28;20264;-79
2023/11/29 07:04:15;;;;;;;17.08;13.05;;;1.60;99.90;;;;;;4956767;28;20694;-77
2023/11/29 07:06:44;;;;;;;12.50;10.25;;;1.60;99.90;;;;;;4947223;28;20757;-80
2023/11/29 07:09:16;;;;;;;11.40;10.05;;;1.60;99.90;;;;;;4954505;28;20674;-79
2023/11/29 07:11:43;;;;;;;12.15;10.23;;;1.60;99.90;;;;;;4956853;28;20290;-79
2023/11/29 07:14:10;;;;;;;12.10;9.30;;;1.60;99.90;;;;;;4956824;28;20235;-77
2023/11/29 07:16:38;;;;;;;9.05;7.75;;;1.70;99.90;;;;;;4956383;28;20275;-78
2023/11/29 07:19:05;;;;;;;14.13;8.07;;;1.60;99.90;;;;;;4957235;28;20235;-79
2023/11/29 07:21:32;;;;;;;11.02;7.88;;;1.60;99.90;;;;;;4956291;28;20228;-81
2023/11/29 07:23:59;;;;;;;9.00;8.02;;;1.50;99.90;;;;;;4956915;28;20224;-78
2023/11/29 07:26:26;;;;;;;9.00;7.68;;;1.60;99.90;;;;;;4956189;28;20224;-79
2023/11/29 07:28:53;;;;;;;11.73;9.00;;;1.70;99.90;;;;;;4956819;28;20247;-79
2023/11/29 07:31:23;;;;;;;8.30;7.50;;;1.70;99.90;;;;;;4955962;28;20243;-80
2023/11/29 07:33:51;;;;;;;8.40;7.30;;;1.70;99.90;;;;;;4957532;28;20232;-80
2023/11/29 07:36:22;;;;;;;9.45;8.50;;;1.80;99.90;;;;;;4956281;28;20228;-79
2023/11/29 07:38:49;;;;;;;10.35;8.98;;;1.80;99.90;;;;;;4956098;28;20227;-78
2023/11/29 07:41:17;;;;;;;9.70;8.70;;;1.80;99.90;;;;;;4957123;28;20283;-79
2023/11/29 07:43:44;;;;;;;10.20;8.30;;;1.80;99.90;;;;;;4956513;28;20227;-79
2023/11/29 07:46:12;;;;;;;10.30;8.75;;;1.90;99.90;;;;;;4957052;28;20228;-79
2023/11/29 07:48:39;;;;;;;10.25;9.02;;;1.90;99.90;;;;;;4956236;28;20247;-79
2023/11/29 07:51:08;;;;;;;10.63;9.52;;;1.90;99.90;;;;;;4956662;28;20238;-79
2023/11/29 07:53:35;;;;;;;12.15;10.40;;;1.90;99.90;;;;;;4956174;28;20315;-79
2023/11/29 07:56:03;;;;;;;11.75;10.15;;;1.90;99.90;;;;;;4956355;28;20242;-78
2023/11/29 07:58:30;;;;;;;12.27;10.93;;;1.80;99.90;;;;;;4955889;28;20234;-78
2023/11/29 08:00:58;;;;;;;11.68;10.40;;;1.80;99.90;;;;;;4956469;28;20302;-78
2023/11/29 08:03:25;;;;;;;13.05;10.38;;;1.80;99.90;;;;;;4955618;28;20228;-78
2023/11/29 08:05:52;;;;;;;16.13;9.30;;;1.90;99.90;;;;;;4960005;28;20228;-79
2023/11/29 08:08:20;;;;;;;10.65;9.45;;;1.80;99.90;;;;;;4964357;28;20228;-78
2023/11/29 08:10:48;;;;;;;14.65;9.85;;;1.90;99.90;;;;;;4965320;28;20239;-80
2023/11/29 08:13:15;;;;;;;10.32;8.75;;;1.90;99.90;;;;;;4962764;28;20235;-78
2023/11/29 08:15:42;;;;;;;10.35;9.25;;;1.90;99.90;;;;;;4956377;28;20235;-78
2023/11/29 08:18:10;;;;;;;11.95;9.32;;;2.00;99.90;;;;;;4955948;28;20228;-77
2023/11/29 08:20:37;;;;;;;11.45;10.05;;;2.00;99.90;;;;;;4955012;28;20287;-78
2023/11/29 08:23:05;;;;;;;11.95;10.80;;;2.00;99.90;;;;;;4956205;28;20604;-78
2023/11/29 08:25:33;;;;;;;11.07;9.27;;;2.00;99.90;;;;;;4955604;28;20310;-78
2023/11/29 08:28:00;;;;;;;10.10;9.10;;;2.00;99.90;;;;;;4956181;28;20238;-78
2023/11/29 08:30:28;;;;;;;9.35;8.35;;;2.10;99.90;;;;;;4955129;28;20569;-77
2023/11/29 08:32:56;;;;;;;11.25;10.02;;;2.10;99.90;;;;;;4955523;28;20270;-78
2023/11/29 08:35:24;;;;;;;10.40;9.10;;;2.10;99.90;;;;;;4956534;28;20733;-77
2023/11/29 08:37:51;;;;;;;10.68;9.55;;;2.10;99.90;;;;;;4955304;28;20614;-80
2023/11/29 08:40:24;;;;;;;12.68;10.30;;;2.10;99.90;;;;;;4955947;28;20298;-80
2023/11/29 08:42:53;;;;;;;17.88;13.85;;;2.20;99.90;;;;;;4955534;28;20287;-80
2023/11/29 08:45:20;;;;;;;14.27;12.48;;;2.20;99.90;;;;;;4955864;28;20355;-80
2023/11/29 08:47:47;;;;;;;12.45;10.10;;;2.30;99.90;;;;;;4955392;28;20242;-80
2023/11/29 08:50:14;;;;;;;17.35;8.88;;;2.30;99.90;;;;;;4957598;28;20227;-80
2023/11/29 08:52:42;;;;;;;10.05;9.02;;;2.40;99.90;;;;;;4959160;28;20254;-77
2023/11/29 08:55:10;;;;;;;11.10;8.82;;;2.40;99.90;;;;;;4959032;28;20224;-77
2023/11/29 08:57:37;;;;;;;10.25;8.60;;;2.40;99.90;;;;;;4959085;28;20670;-78
2023/11/29 09:00:09;;;;;;;9.98;8.55;;;2.40;99.90;;;;;;4959378;28;20316;-77
2023/11/29 09:02:37;;;;;;;10.90;8.43;;;2.40;99.90;;;;;;4958778;28;20220;-78
2023/11/29 09:05:04;;;;;;;15.45;9.25;;;2.50;99.90;;;;;;4959273;28;20283;-77
2023/11/29 09:07:32;;;;;;;11.18;10.02;;;2.50;99.90;;;;;;4958633;28;20241;-77
2023/11/29 09:09:59;;;;;;;10.60;9.00;;;2.50;99.90;;;;;;4959598;28;20559;-78
2023/11/29 09:12:26;;;;;;;11.43;10.18;;;2.50;99.90;;;;;;4958960;28;20260;-77
2023/11/29 09:14:55;;;;;;;10.70;9.05;;;2.50;99.90;;;;;;4958291;28;20594;-78
2023/11/29 09:17:23;;;;;;;11.05;8.82;;;2.50;99.90;;;;;;4959605;28;20224;-78
2023/11/29 09:19:50;;;;;;;11.38;9.65;;;2.50;99.90;;;;;;4967144;28;20556;-80
2023/11/29 09:22:21;;;;;;;10.82;9.52;;;2.60;99.90;;;;;;4970566;28;20231;-80
2023/11/29 09:24:50;;;;;;;11.48;9.85;;;2.50;99.90;;;;;;4966260;28;20674;-79
2023/11/29 09:27:17;;;;;;;9.40;8.45;;;2.50;99.90;;;;;;4960474;28;20223;-80
2023/11/29 09:29:45;;;;;;;16.67;10.27;;;2.40;99.90;;;;;;4959215;28;20235;-80
2023/11/29 09:32:14;;;;;;;10.48;9.40;;;2.40;99.90;;;;;;4959671;28;20252;-80
2023/11/29 09:34:43;;;;;;;12.35;9.20;;;2.50;99.90;;;;;;4959214;28;20572;-80
2023/11/29 09:37:09;;;;;;;10.93;9.20;;;2.50;99.90;;;;;;4962070;28;20315;-80
2023/11/29 09:39:36;;;;;;;11.77;9.45;;;2.40;99.90;;;;;;4962304;28;20231;-77
2023/11/29 09:42:04;;;;;;;12.43;8.75;;;2.40;99.90;;;;;;4958388;28;20228;-77
2023/11/29 09:44:35;;;;;;;10.80;9.07;;;2.40;99.90;;;;;;4958773;28;20235;-77
2023/11/29 09:47:03;;;;;;;11.32;8.43;;;2.40;99.90;;;;;;4958023;28;20248;-78
2023/11/29 09:49:31;;;;;;;12.80;8.80;;;2.40;99.90;;;;;;4958523;28;20608;-78
2023/11/29 09:52:02;;;;;;;12.18;10.85;;;2.40;99.90;;;;;;4957059;28;20585;-78
2023/11/29 09:54:31;;;;;;;12.93;11.55;;;2.40;99.90;;;;;;4957729;28;20223;-78
2023/11/29 09:56:58;;;;;;;11.13;10.02;;;2.50;99.90;;;;;;4957791;28;20267;-77
2023/11/29 09:59:25;;;;;;;20.27;12.60;;;2.50;99.90;;;;;;4958131;28;20288;-78
2023/11/29 10:01:53;;;;;;;11.98;10.70;;;2.50;99.90;;;;;;4957115;28;20616;-78
2023/11/29 10:04:20;;;;;;;16.02;12.25;;;2.60;99.90;;;;;;4957980;28;20231;-78
2023/11/29 10:06:46;;;;;;;9.60;8.70;;;2.60;99.90;;;;;;4957506;28;20224;-78
2023/11/29 10:09:16;;;;;;;16.58;12.80;;;2.60;99.90;;;;;;4958092;28;20228;-77
2023/11/29 10:11:44;;;;;;;28.50;19.75;;;2.70;99.90;;;;;;4957670;28;20315;-78
2023/11/29 10:14:12;;;;;;;19.45;14.55;;;2.70;99.90;;;;;;4956145;28;20242;-78
2023/11/29 10:16:39;;;;;;;18.40;16.10;;;2.80;99.90;;;;;;4958072;28;20239;-78
2023/11/29 10:19:09;;;;;;;16.45;14.45;;;2.80;99.90;;;;;;4947466;28;20236;-77
2023/11/29 10:21:40;;;;;;;15.40;12.73;;;2.80;99.90;;;;;;4957241;28;20284;-80
2023/11/29 10:24:07;;;;;;;12.45;11.00;;;2.80;99.90;;;;;;4957425;28;20231;-80
2023/11/29 10:26:36;;;;;;;16.13;14.60;;;2.80;99.90;;;;;;4957437;28;20760;-80
2023/11/29 10:29:03;;;;;;;13.40;10.70;;;2.90;99.90;;;;;;4957079;28;20224;-80
2023/11/29 10:31:31;;;;;;;11.75;10.15;;;2.90;99.90;;;;;;4947278;28;20231;-79
2023/11/29 10:33:58;;;;;;;13.50;10.20;;;2.90;99.90;;;;;;4956761;28;20232;-80
2023/11/29 10:36:27;;;;;;;14.02;11.95;;;2.90;99.90;;;;;;4957526;28;20224;-79
2023/11/29 10:39:03;;;;;;;16.92;14.10;;;2.80;99.90;;;;;;4956999;28;20591;-79
2023/11/29 10:41:34;;;;;;;13.50;11.85;;;2.80;99.90;;;;;;4957113;28;20255;-79
2023/11/29 10:44:02;;;;;;;12.70;9.85;;;2.80;99.90;;;;;;4956549;28;20235;-79
2023/11/29 10:46:34;;;;;;;12.05;9.45;;;2.90;99.90;;;;;;4957334;28;20223;-79
2023/11/29 10:49:13;;;;;;;13.75;10.68;;;2.90;99.90;;;;;;4956913;28;20232;-79
2023/11/29 10:51:40;;;;;;;15.35;11.82;;;3.00;99.90;;;;;;4957630;28;20223;-79
2023/11/29 10:54:08;;;;;;;12.38;11.05;;;3.10;99.90;;;;;;4956918;28;20236;-79
2023/11/29 10:56:36;;;;;;;21.98;15.65;;;3.10;99.90;;;;;;4957781;28;20268;-79
2023/11/29 10:59:17;;;;;;;15.68;12.85;;;3.10;99.90;;;;;;4955645;28;20291;-80
2023/11/29 11:01:44;;;;;;;17.40;14.05;;;3.10;99.90;;;;;;4957032;28;20228;-80
2023/11/29 11:04:12;;;;;;;13.85;11.50;;;3.20;99.90;;;;;;4956155;28;20291;-80
2023/11/29 11:06:42;;;;;;;16.52;11.25;;;3.20;99.90;;;;;;4957124;28;20224;-80
2023/11/29 11:09:31;;;;;;;11.90;10.57;;;3.20;99.90;;;;;;4956653;28;20224;-79
2023/11/29 11:11:59;;;;;;;14.40;10.70;;;3.20;99.90;;;;;;4956085;28;20228;-80
2023/11/29 11:14:46;;;;;;;11.63;10.00;;;3.30;99.90;;;;;;4955930;28;20251;-80
2023/11/29 11:17:14;;;;;;;11.55;9.75;;;3.30;99.90;;;;;;4956521;28;20220;-80
2023/11/29 11:19:42;;;;;;;13.70;11.18;;;3.20;99.90;;;;;;4957139;28;20226;-80
2023/11/29 11:22:11;;;;;;;16.42;10.23;;;3.30;99.90;;;;;;4955974;28;20243;-79
2023/11/29 11:25:07;;;;;;;11.43;10.23;;;3.40;99.90;;;;;;4957094;28;20224;-79
2023/11/29 11:27:35;;;;;;;12.90;10.27;;;3.40;99.90;;;;;;4956727;28;20291;-78
2023/11/29 11:30:28;;;;;;;17.73;11.10;;;3.50;99.90;;;;;;4956618;28;20591;-78
2023/11/29 11:33:13;;;;;;;11.10;9.73;;;3.50;99.90;;;;;;4941631;28;20252;-78
2023/11/29 11:35:41;;;;;;;12.65;10.73;;;3.50;99.90;;;;;;4956066;28;20224;-80
2023/11/29 11:38:10;;;;;;;12.70;9.48;;;3.50;99.90;;;;;;4955956;28;20323;-80
2023/11/29 11:40:41;;;;;;;12.13;9.82;;;3.50;99.90;;;;;;4955680;28;20315;-81
2023/11/29 11:43:10;;;;;;;11.77;10.02;;;3.50;99.90;;;;;;4955368;28;20247;-78
2023/11/29 11:45:40;;;;;;;11.65;9.68;;;3.60;99.90;;;;;;4955356;28;20224;-78
2023/11/29 11:48:08;;;;;;;13.13;11.70;;;3.60;99.90;;;;;;4956000;28;20684;-77
2023/11/29 11:50:35;;;;;;;12.20;10.20;;;3.50;99.90;;;;;;4956043;28;20248;-80
2023/11/29 11:53:04;;;;;;;13.15;10.75;;;3.60;99.90;;;;;;4955245;28;20231;-80
2023/11/29 11:55:31;;;;;;;13.30;10.60;;;3.70;99.90;;;;;;4955855;28;20577;-80
2023/11/29 11:58:02;;;;;;;12.77;10.95;;;3.70;99.90;;;;;;4955985;28;20257;-80
2023/11/29 12:00:30;;;;;;;11.80;9.98;;;3.70;99.90;;;;;;4954874;28;20228;-79
2023/11/29 12:03:00;;;;;;;17.98;13.43;;;3.60;99.90;;;;;;4954788;28;20243;-79
2023/11/29 12:05:28;;;;;;;19.60;13.80;;;3.70;99.90;;;;;;4956022;28;20255;-80
2023/11/29 12:07:55;;;;;;;15.70;11.48;;;3.70;99.90;;;;;;4954999;28;20232;-80
2023/11/29 12:10:23;;;;;;;13.77;12.27;;;3.70;99.90;;;;;;4955763;28;20228;-77
2023/11/29 12:12:50;;;;;;;13.95;10.95;;;3.70;99.90;;;;;;4954327;28;20291;-80
2023/11/29 12:15:18;;;;;;;13.70;12.35;;;3.70;99.90;;;;;;4955955;28;20309;-77
2023/11/29 12:17:46;;;;;;;15.45;11.63;;;3.70;99.90;;;;;;4954971;28;20265;-80
2023/11/29 12:20:16;;;;;;;12.75;10.88;;;3.80;99.90;;;;;;4955799;28;20231;-80
2023/11/29 12:22:45;;;;;;;13.15;11.55;;;3.60;99.90;;;;;;4954892;28;20624;-80
2023/11/29 12:25:14;;;;;;;14.20;10.57;;;3.50;99.90;;;;;;4955315;28;20573;-78
2023/11/29 12:27:44;;;;;;;12.57;11.20;;;3.50;99.90;;;;;;4955811;28;20666;-80
2023/11/29 12:30:12;;;;;;;13.07;11.43;;;3.50;99.90;;;;;;4946089;28;20227;-77
2023/11/29 12:32:41;;;;;;;15.95;11.63;;;3.50;99.90;;;;;;4955436;28;20228;-77
2023/11/29 12:35:10;;;;;;;11.73;10.52;;;3.50;99.90;;;;;;4954813;28;20243;-78
2023/11/29 12:37:43;;;;;;;17.73;13.43;;;3.60;99.90;;;;;;4955549;28;20216;-80
2023/11/29 12:40:16;;;;;;;12.85;11.35;;;3.50;99.90;;;;;;4955282;28;20659;-80
2023/11/29 12:42:44;;;;;;;14.05;12.32;;;3.50;99.90;;;;;;4955220;28;20259;-80
2023/11/29 12:45:15;;;;;;;16.13;11.50;;;3.50;99.90;;;;;;4953944;28;20251;-77
2023/11/29 12:47:42;;;;;;;15.32;12.27;;;3.50;99.90;;;;;;4955256;28;20271;-80
2023/11/29 12:50:11;;;;;;;15.77;13.27;;;3.50;99.90;;;;;;4954462;28;20239;-80
2023/11/29 12:52:39;;;;;;;13.27;10.88;;;3.40;99.90;;;;;;4955512;28;20307;-78
2023/11/29 12:55:07;;;;;;;19.10;12.73;;;3.40;99.90;;;;;;4954670;28;20232;-78